logo
Rechercher aéroport 
image banner adimage banner adimage banner ad
image banner ad

YCOSM - Cosmos

Situé à Dysart, Australia

ICAO - , IATA -

Données fournies par Airmate  

Information générale

Coordonnées: S22°33'42" E148°38'32"
Élévation : 546 feet MSL.
Variation magnétique : 9° East
Voir autres Aéroports à Queensland

Données opérationnelles

Special qualification required
Heure actuelle UTC:
Heure actuelle locale:
Météo à : - ( 0 km )
METAR: KAFP 141657Z AUTO 00000KT 10SM CLR 34/21 A3011 RMK AO2 T03360209
Voir NOTAMs / SUP AIP / TFR affectant cet aéroport [VIEW]
Fréquences de communication: [VIEW]

Pistes:

Identifiant RWYQFULongueur (ft)Largeur (ft)SurfaceLDA (ft)
27276°288221GRAV
0996°288221GRAV

Coordonnées de l'aéroport

Adresse: Dysart Australia

Vue satellite de YCOSM